createdAt,value
2022-10-22T00:01:35.949Z,98480.10
2022-10-22T00:05:13.551Z,98477.50
2022-10-22T00:09:09.385Z,98473.17
2022-10-22T00:12:49.293Z,98467.64
2022-10-22T00:16:06.864Z,98451.70
2022-10-22T00:19:45.889Z,98449.78
2022-10-22T00:23:43.210Z,98451.52
2022-10-22T00:27:04.300Z,98444.08
2022-10-22T00:31:07.548Z,98443.05
2022-10-22T00:34:23.180Z,98431.10
2022-10-22T00:38:02.087Z,98420.18
2022-10-22T00:41:59.153Z,98414.13
2022-10-22T00:45:29.207Z,98411.52
2022-10-22T00:49:06.052Z,98411.36
2022-10-22T00:53:06.297Z,98406.52
2022-10-22T00:56:22.576Z,98410.16
2022-10-22T01:00:00.049Z,98421.25
2022-10-22T01:03:37.753Z,98438.41
2022-10-22T01:07:44.282Z,98458.35
2022-10-22T01:11:20.105Z,98447.60
2022-10-22T01:15:24.190Z,98435.48
2022-10-22T01:18:34.059Z,98436.50
2022-10-22T01:22:30.917Z,98439.29
2022-10-22T01:26:17.882Z,98407.91
2022-10-22T01:30:15.550Z,98407.75
2022-10-22T01:33:34.679Z,98413.82
2022-10-22T01:37:34.721Z,98411.73
2022-10-22T01:40:52.031Z,98408.47
2022-10-22T01:48:30.969Z,98403.95
2022-10-22T01:52:48.919Z,98398.59
2022-10-22T01:56:16.823Z,98396.34
2022-10-22T02:00:05.704Z,98390.08
2022-10-22T02:04:20.813Z,98402.55
2022-10-22T02:08:02.770Z,98406.73
2022-10-22T02:11:40.506Z,98424.40
2022-10-22T02:15:20.391Z,98425.59
2022-10-22T02:19:03.185Z,98425.42
2022-10-22T02:22:40.579Z,98420.09
2022-10-22T02:26:24.545Z,98404.48
2022-10-22T02:30:12.139Z,98401.38
2022-10-22T02:33:55.396Z,98392.50
2022-10-22T02:37:33.068Z,98390.10
2022-10-22T02:41:11.108Z,98381.96
2022-10-22T02:44:54.212Z,98389.55
2022-10-22T02:48:31.476Z,98393.37
2022-10-22T02:52:09.162Z,98394.75
2022-10-22T02:55:47.335Z,98391.10
2022-10-22T02:59:44.434Z,98390.58
2022-10-22T03:03:21.474Z,98395.08
2022-10-22T03:07:02.159Z,98395.27
2022-10-22T03:10:18.380Z,98402.55
2022-10-22T03:13:57.887Z,98407.75
2022-10-22T03:17:34.829Z,98414.03
2022-10-22T03:21:39.449Z,98412.83
2022-10-22T03:25:21.356Z,98414.73
2022-10-22T03:29:18.051Z,98413.88
2022-10-22T03:32:56.170Z,98415.09
2022-10-22T03:36:33.402Z,98411.97
2022-10-22T03:39:54.428Z,98415.95
2022-10-22T03:43:34.391Z,98415.77
2022-10-22T03:47:13.214Z,98411.27
2022-10-22T03:50:50.837Z,98406.08
2022-10-22T03:54:29.207Z,98403.30
2022-10-22T03:58:25.432Z,98392.02
2022-10-22T04:01:45.361Z,98387.34
2022-10-22T04:05:22.837Z,98373.30
2022-10-22T04:09:01.569Z,98375.90
2022-10-22T04:12:39.111Z,98376.93
2022-10-22T04:16:24.039Z,98370.35
2022-10-22T04:20:05.268Z,98371.05
2022-10-22T04:23:51.721Z,98377.45
2022-10-22T04:27:33.396Z,98392.20
2022-10-22T04:31:13.431Z,98405.90
2022-10-22T04:34:50.789Z,98407.63
2022-10-22T04:38:28.459Z,98407.98
2022-10-22T04:42:06.041Z,98410.59
2022-10-22T04:45:44.801Z,98411.45
2022-10-22T04:49:22.005Z,98411.61
2022-10-22T04:53:02.331Z,98416.31
2022-10-22T04:56:41.604Z,98413.17
2022-10-22T05:00:18.861Z,98411.46
2022-10-22T05:03:58.680Z,98414.73
2022-10-22T05:07:37.060Z,98412.14
2022-10-22T05:11:18.794Z,98405.54
2022-10-22T05:14:57.680Z,98410.05
2022-10-22T05:18:58.983Z,98410.05
2022-10-22T05:22:14.334Z,98426.88
2022-10-22T05:25:56.247Z,98435.55
2022-10-22T05:29:34.447Z,98455.66
2022-10-22T05:33:12.642Z,98463.48
2022-10-22T05:36:50.149Z,98475.11
2022-10-22T05:40:31.123Z,98466.60
2022-10-22T05:44:27.659Z,98467.20
2022-10-22T05:47:46.441Z,98468.00
2022-10-22T05:51:27.759Z,98457.23
2022-10-22T05:55:05.359Z,98453.08
2022-10-22T05:58:46.026Z,98463.30
2022-10-22T06:02:23.492Z,98453.41
2022-10-22T06:06:04.854Z,98451.16
2022-10-22T06:09:56.244Z,98452.36
2022-10-22T06:13:21.133Z,98453.92
2022-10-22T06:17:00.680Z,98450.96
2022-10-22T06:20:39.664Z,98445.59
2022-10-22T06:24:19.662Z,98443.33
2022-10-22T06:27:58.758Z,98452.70
2022-10-22T06:31:55.786Z,98465.02
2022-10-22T06:35:33.503Z,98460.84
2022-10-22T06:39:15.225Z,98459.80
2022-10-22T06:42:29.842Z,98457.02
2022-10-22T06:46:10.264Z,98469.50
2022-10-22T06:49:47.089Z,98473.30
2022-10-22T06:53:24.986Z,98481.27
2022-10-22T06:57:02.722Z,98483.35
2022-10-22T07:00:40.505Z,98484.38
2022-10-22T07:04:18.224Z,98484.02
2022-10-22T07:08:01.872Z,98486.11
2022-10-22T07:11:42.940Z,98487.86
2022-10-22T07:15:24.043Z,98494.61
2022-10-22T07:19:02.583Z,98497.72
2022-10-22T07:22:42.057Z,98493.76
2022-10-22T07:26:25.551Z,98497.05
2022-10-22T07:30:02.803Z,98501.90
2022-10-22T07:33:43.555Z,98505.70
2022-10-22T07:37:22.385Z,98512.48
2022-10-22T07:41:00.394Z,98511.09
2022-10-22T07:44:39.419Z,98512.82
2022-10-22T07:48:46.801Z,98525.84
2022-10-22T07:52:44.850Z,98523.91
2022-10-22T07:56:16.781Z,98521.64
2022-10-22T07:59:53.740Z,98516.23
2022-10-22T08:03:50.872Z,98515.03
2022-10-22T08:07:09.122Z,98519.19
2022-10-22T08:10:48.868Z,98521.77
2022-10-22T08:14:25.679Z,98532.73
2022-10-22T08:18:04.126Z,98539.33
2022-10-22T08:21:41.831Z,98546.42
2022-10-22T08:25:19.233Z,98551.61
2022-10-22T08:28:56.911Z,98552.11
2022-10-22T08:32:34.647Z,98544.95
2022-10-22T08:36:12.773Z,98545.46
2022-10-22T08:39:49.944Z,98535.73
2022-10-22T08:43:38.096Z,98536.21
2022-10-22T08:47:46.528Z,98543.14
2022-10-22T08:51:31.619Z,98542.42
2022-10-22T08:55:14.868Z,98538.77
2022-10-22T08:58:56.292Z,98542.23
2022-10-22T09:02:52.355Z,98552.52
2022-10-22T09:06:41.725Z,98559.97
2022-10-22T09:10:24.780Z,98559.77
2022-10-22T09:14:02.922Z,98561.48
2022-10-22T09:17:50.812Z,98556.03
2022-10-22T09:22:38.799Z,98560.32
2022-10-22T09:25:27.005Z,98563.60
2022-10-22T09:27:58.863Z,98567.59
2022-10-22T09:30:35.112Z,98564.61
2022-10-22T09:33:06.573Z,98563.34
2022-10-22T09:35:45.115Z,98562.24
2022-10-22T09:38:16.084Z,98560.11
2022-10-22T09:40:47.645Z,98561.09
2022-10-22T09:43:18.034Z,98560.30
2022-10-22T09:45:48.189Z,98558.27
2022-10-22T09:48:21.178Z,98563.93
2022-10-22T09:50:55.895Z,98567.53
2022-10-22T09:53:31.225Z,98569.08
2022-10-22T09:56:18.203Z,98565.29
2022-10-22T09:58:51.504Z,98565.66
2022-10-22T10:01:24.836Z,98560.10
2022-10-22T10:03:54.208Z,98554.50
2022-10-22T10:06:23.946Z,98556.19
2022-10-22T10:08:53.022Z,98564.88
2022-10-22T10:11:33.075Z,98571.50
2022-10-22T10:14:48.319Z,98576.76
2022-10-22T10:17:51.659Z,98564.90
2022-10-22T10:20:42.050Z,98551.79
2022-10-22T10:23:29.761Z,98551.02
2022-10-22T10:26:20.109Z,98553.91
2022-10-22T10:28:59.854Z,98562.90
2022-10-22T10:31:28.777Z,98572.42
2022-10-22T10:34:29.351Z,98564.39
2022-10-22T10:37:11.235Z,98564.42
2022-10-22T10:40:08.378Z,98571.06
2022-10-22T10:42:39.976Z,98571.60
2022-10-22T10:45:34.959Z,98570.78
2022-10-22T10:48:29.481Z,98567.31
2022-10-22T10:51:18.661Z,98569.94
2022-10-22T10:53:50.729Z,98563.01
2022-10-22T10:56:58.185Z,98560.92
2022-10-22T10:59:48.595Z,98556.58
2022-10-22T11:02:53.688Z,98551.89
2022-10-22T11:05:38.414Z,98557.49
2022-10-22T11:08:40.538Z,98562.04
2022-10-22T11:11:18.446Z,98564.66
2022-10-22T11:13:57.535Z,98570.58
2022-10-22T11:16:38.393Z,98572.31
2022-10-22T11:19:49.708Z,98576.61
2022-10-22T11:22:44.464Z,98581.48
2022-10-22T11:25:26.184Z,98579.73
2022-10-22T11:28:09.108Z,98574.69
2022-10-22T11:30:43.544Z,98580.10
2022-10-22T11:33:19.206Z,98585.51
2022-10-22T11:35:49.288Z,98587.98
2022-10-22T11:38:24.647Z,98578.25
2022-10-22T11:41:01.133Z,98571.45
2022-10-22T11:43:54.942Z,98574.58
2022-10-22T11:46:23.451Z,98580.10
2022-10-22T11:49:14.231Z,98581.46
2022-10-22T11:51:45.530Z,98580.38
2022-10-22T11:54:50.696Z,98578.25
2022-10-22T11:57:29.162Z,98575.96
2022-10-22T12:00:01.140Z,98570.17
2022-10-22T12:06:15.942Z,98565.34
2022-10-22T12:08:50.765Z,98566.52
2022-10-22T12:11:19.519Z,98567.02
2022-10-22T12:14:25.202Z,98565.48
2022-10-22T12:17:00.451Z,98567.27
2022-10-22T12:19:41.488Z,98569.73
2022-10-22T12:22:28.801Z,98562.43
2022-10-22T12:25:08.102Z,98556.86
2022-10-22T12:27:57.850Z,98556.15
2022-10-22T12:30:30.230Z,98552.33
2022-10-22T12:33:00.903Z,98561.95
2022-10-22T12:35:32.491Z,98562.35
2022-10-22T12:38:05.555Z,98563.45
2022-10-22T12:40:36.346Z,98564.91
2022-10-22T12:43:12.715Z,98564.05
2022-10-22T12:45:43.630Z,98561.77
2022-10-22T12:48:17.213Z,98563.34
2022-10-22T12:50:55.456Z,98557.21
2022-10-22T12:53:32.411Z,98557.53
2022-10-22T12:56:29.091Z,98560.31
2022-10-22T12:59:05.396Z,98563.12
2022-10-22T13:01:39.422Z,98565.45
2022-10-22T13:04:24.342Z,98563.58
2022-10-22T13:07:07.173Z,98563.41
2022-10-22T13:13:46.320Z,98564.80
2022-10-22T13:16:25.373Z,98566.83
2022-10-22T13:18:54.999Z,98564.84
2022-10-22T13:21:49.103Z,98565.69
2022-10-22T13:24:25.418Z,98573.69
2022-10-22T13:26:56.832Z,98573.98
2022-10-22T13:29:25.656Z,98575.95
2022-10-22T13:31:54.600Z,98579.11
2022-10-22T13:34:26.334Z,98579.27
2022-10-22T13:36:54.981Z,98579.04
2022-10-22T13:39:25.092Z,98581.83
2022-10-22T13:41:53.725Z,98582.46
2022-10-22T13:44:23.163Z,98585.40
2022-10-22T13:46:51.959Z,98589.73
2022-10-22T13:49:23.826Z,98590.06
2022-10-22T13:51:53.327Z,98591.58
2022-10-22T13:54:25.627Z,98594.84
2022-10-22T13:56:54.711Z,98599.48
2022-10-22T13:59:24.133Z,98598.20
2022-10-22T14:01:57.212Z,98597.26
2022-10-22T14:04:39.510Z,98595.82
2022-10-22T14:07:17.278Z,98601.20
2022-10-22T14:09:46.381Z,98608.31
2022-10-22T14:12:17.293Z,98608.81
2022-10-22T14:14:46.249Z,98613.52
2022-10-22T14:17:47.582Z,98618.23
2022-10-22T14:20:44.845Z,98620.48
2022-10-22T14:23:25.464Z,98621.89
2022-10-22T14:25:54.932Z,98624.88
2022-10-22T14:28:24.167Z,98621.44
2022-10-22T14:30:55.890Z,98624.11
2022-10-22T14:33:31.957Z,98624.70
2022-10-22T14:36:02.518Z,98624.57
2022-10-22T14:38:34.151Z,98624.78
2022-10-22T14:41:22.887Z,98626.76
2022-10-22T14:43:56.959Z,98630.80
2022-10-22T14:46:28.058Z,98630.50
2022-10-22T14:48:57.128Z,98629.48
2022-10-22T14:51:25.671Z,98624.98
2022-10-22T14:53:54.724Z,98624.67
2022-10-22T14:56:23.916Z,98624.13
2022-10-22T14:58:53.704Z,98625.17
2022-10-22T15:01:22.526Z,98625.52
2022-10-22T15:03:51.548Z,98629.34
2022-10-22T15:06:19.955Z,98635.67
2022-10-22T15:08:48.817Z,98636.80
2022-10-22T15:11:17.750Z,98641.20
2022-10-22T15:13:46.243Z,98640.52
2022-10-22T15:16:16.990Z,98636.17
2022-10-22T15:18:45.856Z,98640.90
2022-10-22T15:21:22.853Z,98645.30
2022-10-22T15:23:51.878Z,98647.59
2022-10-22T15:26:20.413Z,98646.90
2022-10-22T15:28:49.562Z,98648.48
2022-10-22T15:31:55.218Z,98651.27
2022-10-22T15:34:26.687Z,98653.38
2022-10-22T15:37:03.659Z,98649.71
2022-10-22T15:39:46.164Z,98651.16
2022-10-22T15:42:15.497Z,98653.48
2022-10-22T15:44:43.965Z,98657.71
2022-10-22T15:47:13.082Z,98662.11
2022-10-22T15:49:42.415Z,98662.98
2022-10-22T15:52:11.427Z,98666.64
2022-10-22T15:54:41.379Z,98667.54
2022-10-22T15:57:11.155Z,98667.58
2022-10-22T16:02:26.864Z,98675.02
2022-10-22T16:04:55.267Z,98682.41
2022-10-22T16:11:19.550Z,98692.27
2022-10-22T16:13:48.957Z,98691.23
2022-10-22T16:22:44.959Z,98710.61
2022-10-22T16:25:14.933Z,98714.45
2022-10-22T16:27:43.552Z,98717.09
2022-10-22T16:30:12.567Z,98721.27
2022-10-22T16:32:41.734Z,98724.04
2022-10-22T16:35:10.764Z,98730.30
2022-10-22T16:37:39.664Z,98733.42
2022-10-22T16:40:10.765Z,98733.07
2022-10-22T16:42:39.703Z,98740.73
2022-10-22T16:45:08.741Z,98748.05
2022-10-22T16:47:38.294Z,98750.15
2022-10-22T16:50:08.179Z,98752.41
2022-10-22T16:52:36.593Z,98758.67
2022-10-22T16:55:05.615Z,98762.16
2022-10-22T16:57:34.411Z,98764.42
2022-10-22T17:00:04.818Z,98769.48
2022-10-22T17:05:45.519Z,98780.61
2022-10-22T17:08:55.066Z,98779.73
2022-10-22T17:11:44.812Z,98780.41
2022-10-22T17:14:59.250Z,98780.95
2022-10-22T17:18:05.688Z,98783.02
2022-10-22T17:21:11.789Z,98786.33
2022-10-22T17:24:41.091Z,98788.98
2022-10-22T17:30:55.416Z,98796.33
2022-10-22T17:37:17.105Z,98798.45
2022-10-22T17:40:25.606Z,98799.85
2022-10-22T17:43:12.348Z,98801.95
2022-10-22T17:46:05.371Z,98809.27
2022-10-22T17:49:02.060Z,98809.30
2022-10-22T17:51:53.088Z,98817.13
2022-10-22T17:54:51.909Z,98820.09
2022-10-22T18:00:30.958Z,98822.19
2022-10-22T18:03:13.097Z,98822.00
2022-10-22T18:05:42.216Z,98822.52
2022-10-22T18:08:10.993Z,98830.02
2022-10-22T18:10:40.461Z,98833.69
2022-10-22T18:13:09.598Z,98832.48
2022-10-22T18:15:39.544Z,98833.86
2022-10-22T18:18:08.062Z,98835.27
2022-10-22T18:20:37.069Z,98837.52
2022-10-22T18:23:06.601Z,98837.16
2022-10-22T18:25:39.272Z,98839.08
2022-10-22T18:28:08.024Z,98841.17
2022-10-22T18:30:41.141Z,98843.95
2022-10-22T18:33:15.010Z,98841.16
2022-10-22T18:35:43.678Z,98838.73
2022-10-22T18:38:12.918Z,98839.76
2022-10-22T18:40:49.227Z,98835.55
2022-10-22T18:43:19.281Z,98837.77
2022-10-22T18:45:49.037Z,98834.61
2022-10-22T18:48:19.157Z,98831.35
2022-10-22T18:50:48.167Z,98831.55
2022-10-22T18:53:16.984Z,98837.98
2022-10-22T18:55:45.721Z,98832.77
2022-10-22T18:58:14.944Z,98833.99
2022-10-22T19:00:43.527Z,98836.60
2022-10-22T19:03:14.652Z,98834.35
2022-10-22T19:05:51.862Z,98839.75
2022-10-22T19:08:20.905Z,98839.75
2022-10-22T19:10:50.405Z,98843.73
2022-10-22T19:13:21.939Z,98845.14
2022-10-22T19:15:52.294Z,98847.77
2022-10-22T19:18:20.976Z,98848.27
2022-10-22T19:20:58.997Z,98851.92
2022-10-22T19:23:30.665Z,98852.27
2022-10-22T19:26:11.089Z,98851.39
2022-10-22T19:28:40.964Z,98857.47
2022-10-22T19:31:15.363Z,98860.27
2022-10-22T19:33:44.549Z,98866.33
2022-10-22T19:36:14.098Z,98872.42
2022-10-22T19:38:45.934Z,98872.07
2022-10-22T19:41:18.277Z,98872.40
2022-10-22T19:43:49.858Z,98869.77
2022-10-22T19:46:20.396Z,98873.25
2022-10-22T19:48:50.123Z,98875.64
2022-10-22T19:51:33.268Z,98874.76
2022-10-22T19:54:45.859Z,98881.35
2022-10-22T19:57:18.727Z,98883.96
2022-10-22T19:59:47.282Z,98882.55
2022-10-22T20:02:17.860Z,98888.80
2022-10-22T20:04:49.939Z,98891.58
2022-10-22T20:07:19.112Z,98894.70
2022-10-22T20:09:48.308Z,98897.98
2022-10-22T20:12:16.725Z,98896.92
2022-10-22T20:14:45.244Z,98894.15
2022-10-22T20:17:14.264Z,98896.73
2022-10-22T20:19:42.728Z,98895.54
2022-10-22T20:22:16.244Z,98905.78
2022-10-22T20:24:47.372Z,98909.95
2022-10-22T20:27:16.671Z,98917.77
2022-10-22T20:29:45.109Z,98920.23
2022-10-22T20:32:13.866Z,98921.27
2022-10-22T20:34:43.034Z,98920.73
2022-10-22T20:37:12.023Z,98922.30
2022-10-22T20:39:40.858Z,98922.65
2022-10-22T20:42:09.867Z,98927.34
2022-10-22T20:44:38.851Z,98926.46
2022-10-22T20:47:07.925Z,98924.39
2022-10-22T20:49:37.113Z,98924.02
2022-10-22T20:52:06.256Z,98918.13
2022-10-22T20:54:35.403Z,98922.47
2022-10-22T20:57:06.314Z,98924.02
2022-10-22T20:59:35.565Z,98921.95
2022-10-22T21:02:05.588Z,98922.63
2022-10-22T21:04:35.500Z,98925.24
2022-10-22T21:07:04.093Z,98926.27
2022-10-22T21:09:35.260Z,98923.83
2022-10-22T21:12:05.344Z,98928.16
2022-10-22T21:14:34.644Z,98933.19
2022-10-22T21:17:03.209Z,98935.45
2022-10-22T21:19:32.027Z,98935.25
2022-10-22T21:22:00.657Z,98937.14
2022-10-22T21:24:29.702Z,98938.52
2022-10-22T21:26:58.468Z,98941.66
2022-10-22T21:29:27.250Z,98940.42
2022-10-22T21:31:55.977Z,98942.30
2022-10-22T21:34:24.594Z,98942.10
2022-10-22T21:36:54.067Z,98943.64
2022-10-22T21:39:23.201Z,98946.05
2022-10-22T21:41:52.217Z,98948.50
2022-10-22T21:44:21.838Z,98947.80
2022-10-22T21:46:50.298Z,98949.86
2022-10-22T21:49:19.280Z,98951.92
2022-10-22T21:51:47.897Z,98952.62
2022-10-22T21:54:16.626Z,98952.03
2022-10-22T21:56:45.856Z,98956.16
2022-10-22T21:59:15.758Z,98949.88
2022-10-22T22:01:45.065Z,98949.88
2022-10-22T22:04:14.199Z,98948.67
2022-10-22T22:06:43.358Z,98947.65
2022-10-22T22:09:12.042Z,98946.60
2022-10-22T22:11:41.199Z,98946.74
2022-10-22T22:14:10.353Z,98947.44
2022-10-22T22:16:39.600Z,98948.12
2022-10-22T22:19:10.036Z,98952.10
2022-10-22T22:21:40.875Z,98951.05
2022-10-22T22:24:13.912Z,98954.38
2022-10-22T22:26:47.195Z,98955.61
2022-10-22T22:29:19.190Z,98955.96
2022-10-22T22:31:52.172Z,98962.36
2022-10-22T22:34:24.097Z,98957.80
2022-10-22T22:36:53.997Z,98955.48
2022-10-22T22:39:23.894Z,98956.68
2022-10-22T22:41:53.029Z,98959.41
2022-10-22T22:44:21.883Z,98960.10
2022-10-22T22:46:50.673Z,98959.77
2022-10-22T22:49:19.404Z,98961.69
2022-10-22T22:51:49.934Z,98963.07
2022-10-22T22:54:18.476Z,98965.50
2022-10-22T22:56:51.236Z,98966.89
2022-10-22T22:59:19.836Z,98967.38
2022-10-22T23:01:50.361Z,98967.71
2022-10-22T23:04:24.054Z,98967.54
2022-10-22T23:06:53.096Z,98969.10
2022-10-22T23:09:22.061Z,98968.72
2022-10-22T23:11:51.497Z,98972.13
2022-10-22T23:14:21.102Z,98971.39
2022-10-22T23:16:51.775Z,98975.17
2022-10-22T23:19:21.835Z,98979.33
2022-10-22T23:21:53.477Z,98974.83
2022-10-22T23:24:26.994Z,98976.77
2022-10-22T23:26:59.707Z,98968.48
2022-10-22T23:29:31.303Z,98965.05
2022-10-22T23:32:01.982Z,98965.07
2022-10-22T23:34:32.038Z,98964.88
2022-10-22T23:37:00.922Z,98961.04
2022-10-22T23:39:30.417Z,98957.67
2022-10-22T23:41:59.420Z,98959.91
2022-10-22T23:44:28.676Z,98963.52
2022-10-22T23:46:57.696Z,98963.15
2022-10-22T23:49:26.274Z,98961.23
2022-10-22T23:51:55.248Z,98960.21
2022-10-22T23:54:23.956Z,98959.86
2022-10-22T23:56:52.914Z,98962.80
2022-10-22T23:59:22.022Z,98963.63
